Time;durP1;ratioP1;P1;durP2;ratioP2;P2;SDS_P1;SDS_P2;PMS_P1;PMS_P2;Temp;Humidity;BMP_temperature;BMP_pressure;BME280_temperature;BME280_humidity;BME280_pressure;Samples;Min_cycle;Max_cycle;Signal;HPM_P1;HPM_P2
2021/07/23 00:01:08;;;;;;;8.23;6.35;;;23.40;52.30;;;;;;5015268;28;20445;-82
2021/07/23 00:03:35;;;;;;;8.88;6.88;;;23.30;51.80;;;;;;5012945;28;20481;-82
2021/07/23 00:06:01;;;;;;;8.57;6.85;;;23.40;51.60;;;;;;5013213;28;20557;-81
2021/07/23 00:08:26;;;;;;;8.05;6.38;;;23.30;52.30;;;;;;5012632;28;20038;-81
2021/07/23 00:10:52;;;;;;;9.25;6.80;;;23.20;51.70;;;;;;5010583;28;20034;-82
2021/07/23 00:13:18;;;;;;;9.13;6.80;;;23.20;50.90;;;;;;5012924;28;20026;-82
2021/07/23 00:15:43;;;;;;;10.50;6.97;;;23.10;52.60;;;;;;5012523;28;20060;-82
2021/07/23 00:18:09;;;;;;;9.13;7.10;;;23.10;51.60;;;;;;5012749;28;20014;-82
2021/07/23 00:20:34;;;;;;;9.27;6.38;;;23.10;51.00;;;;;;5012825;28;20041;-82
2021/07/23 00:23:00;;;;;;;6.95;6.07;;;23.10;51.70;;;;;;5013027;28;20097;-83
2021/07/23 00:25:26;;;;;;;7.60;5.88;;;23.00;53.60;;;;;;5012012;28;20030;-82
2021/07/23 00:27:51;;;;;;;9.60;6.63;;;23.00;51.70;;;;;;5013175;28;20037;-82
2021/07/23 00:30:17;;;;;;;7.32;6.18;;;22.90;52.90;;;;;;5011799;28;20053;-82
2021/07/23 00:32:42;;;;;;;8.98;6.43;;;22.90;53.30;;;;;;5011538;28;20028;-82
2021/07/23 00:35:09;;;;;;;9.25;6.60;;;22.80;53.60;;;;;;5012473;28;20499;-82
2021/07/23 00:37:35;;;;;;;7.45;6.50;;;22.80;52.70;;;;;;5012803;28;20022;-82
2021/07/23 00:40:00;;;;;;;9.45;6.75;;;22.80;53.00;;;;;;5025678;28;20030;-82
2021/07/23 00:42:35;;;;;;;7.70;6.50;;;22.70;52.50;;;;;;5012146;28;20392;-82
2021/07/23 00:45:02;;;;;;;8.20;6.15;;;22.70;52.60;;;;;;5012455;28;20053;-81
2021/07/23 00:47:28;;;;;;;7.78;6.38;;;22.60;53.80;;;;;;5011935;28;20037;-82
2021/07/23 00:49:54;;;;;;;7.22;5.88;;;22.60;53.60;;;;;;5012633;28;20117;-83
2021/07/23 00:52:19;;;;;;;7.18;5.88;;;22.60;52.80;;;;;;5013710;28;20109;-82
2021/07/23 00:54:45;;;;;;;8.60;6.40;;;22.60;54.20;;;;;;5011844;28;20077;-82
2021/07/23 00:57:10;;;;;;;8.45;5.78;;;22.60;54.60;;;;;;5011872;28;20133;-82
2021/07/23 00:59:36;;;;;;;6.82;5.72;;;22.60;54.90;;;;;;5012246;28;20029;-82
2021/07/23 01:02:02;;;;;;;7.97;6.25;;;22.60;54.60;;;;;;5011874;28;20088;-82
2021/07/23 01:04:28;;;;;;;7.15;5.63;;;22.60;54.00;;;;;;5011777;28;20022;-83
2021/07/23 01:06:53;;;;;;;7.45;5.93;;;22.60;54.60;;;;;;5013845;28;20042;-82
2021/07/23 01:09:19;;;;;;;9.40;6.00;;;22.50;54.20;;;;;;5010576;28;20383;-82
2021/07/23 01:11:45;;;;;;;8.48;6.60;;;22.50;53.80;;;;;;5011679;28;20034;-82
2021/07/23 01:14:11;;;;;;;8.07;6.32;;;22.60;54.70;;;;;;5010864;28;20022;-81
2021/07/23 01:16:37;;;;;;;8.27;6.03;;;22.50;54.60;;;;;;5009122;28;20076;-82
2021/07/23 01:19:05;;;;;;;8.32;6.20;;;22.50;55.20;;;;;;5012092;28;20026;-83
2021/07/23 01:21:31;;;;;;;8.63;6.22;;;22.50;54.10;;;;;;5011640;28;20029;-83
2021/07/23 01:23:59;;;;;;;10.93;6.63;;;22.50;54.30;;;;;;5011884;28;20153;-83
2021/07/23 01:26:25;;;;;;;7.93;6.50;;;22.40;55.10;;;;;;5010885;28;20037;-82
2021/07/23 01:28:51;;;;;;;7.20;5.68;;;22.30;55.60;;;;;;5011546;28;20076;-83
2021/07/23 01:31:17;;;;;;;8.57;6.03;;;22.30;54.80;;;;;;5011535;28;20053;-83
2021/07/23 01:33:42;;;;;;;8.50;6.05;;;22.20;55.80;;;;;;5012119;28;20060;-82
2021/07/23 01:36:08;;;;;;;7.00;5.93;;;22.20;54.90;;;;;;5011558;28;20026;-82
2021/07/23 01:38:35;;;;;;;8.02;5.90;;;22.20;55.60;;;;;;5011996;28;20037;-83
2021/07/23 01:41:02;;;;;;;7.72;6.07;;;22.10;56.00;;;;;;5022425;28;20033;-82
2021/07/23 01:43:28;;;;;;;7.80;6.38;;;22.00;57.00;;;;;;5011901;28;20033;-82
2021/07/23 01:45:53;;;;;;;6.97;5.82;;;21.90;55.90;;;;;;5012023;28;20041;-80
2021/07/23 01:48:20;;;;;;;7.60;5.90;;;21.90;56.50;;;;;;5011201;28;20026;-80
2021/07/23 01:50:46;;;;;;;10.65;6.50;;;21.80;56.30;;;;;;5011015;28;20036;-81
2021/07/23 01:53:11;;;;;;;7.15;6.20;;;21.80;57.00;;;;;;5011243;28;20022;-80
2021/07/23 01:55:37;;;;;;;10.07;6.07;;;21.80;56.70;;;;;;5010770;28;20471;-81
2021/07/23 01:58:03;;;;;;;13.05;6.63;;;21.80;56.80;;;;;;5012056;28;20029;-81
2021/07/23 02:00:29;;;;;;;8.93;6.47;;;21.70;57.70;;;;;;5011087;28;20112;-81
2021/07/23 02:02:54;;;;;;;8.50;6.32;;;21.70;57.40;;;;;;5011356;28;20622;-80
2021/07/23 02:05:20;;;;;;;7.30;5.88;;;21.70;57.70;;;;;;5010591;28;20064;-82
2021/07/23 02:07:45;;;;;;;7.72;6.30;;;21.60;57.70;;;;;;5009652;28;20466;-82
2021/07/23 02:10:11;;;;;;;8.32;5.97;;;21.60;57.70;;;;;;5012699;28;20025;-82
2021/07/23 02:12:36;;;;;;;9.43;6.60;;;21.60;57.20;;;;;;5010915;28;20037;-82
2021/07/23 02:15:05;;;;;;;7.63;6.32;;;21.60;58.90;;;;;;5010837;28;20030;-82
2021/07/23 02:17:32;;;;;;;9.50;6.68;;;21.60;57.80;;;;;;5010692;28;20026;-82
2021/07/23 02:19:57;;;;;;;9.32;6.22;;;21.50;56.90;;;;;;5010724;28;20026;-82
2021/07/23 02:22:23;;;;;;;7.22;6.13;;;21.50;58.30;;;;;;5010327;28;20533;-82
2021/07/23 02:24:48;;;;;;;8.80;6.15;;;21.50;58.50;;;;;;5011827;28;20034;-82
2021/07/23 02:27:14;;;;;;;7.88;6.40;;;21.50;57.90;;;;;;5010488;28;20509;-82
2021/07/23 02:29:40;;;;;;;7.20;5.78;;;21.50;59.00;;;;;;5010077;28;20037;-82
2021/07/23 02:32:05;;;;;;;8.10;5.97;;;21.50;57.50;;;;;;5010739;28;20465;-80
2021/07/23 02:34:32;;;;;;;7.93;6.18;;;21.50;58.70;;;;;;5010635;28;20029;-81
2021/07/23 02:36:58;;;;;;;8.32;5.68;;;21.40;58.10;;;;;;5012485;28;20029;-84
2021/07/23 02:39:25;;;;;;;8.18;6.60;;;21.40;58.20;;;;;;5017566;28;20033;-80
2021/07/23 02:41:51;;;;;;;7.55;6.45;;;21.40;57.90;;;;;;5010719;28;20061;-81
2021/07/23 02:44:17;;;;;;;9.15;6.40;;;21.40;57.70;;;;;;5010001;28;20026;-83
2021/07/23 02:46:42;;;;;;;8.57;6.30;;;21.40;57.30;;;;;;5008977;28;20041;-81
2021/07/23 02:49:08;;;;;;;8.65;6.10;;;21.40;58.70;;;;;;5012414;28;20478;-82
2021/07/23 02:51:33;;;;;;;7.75;5.78;;;21.40;58.70;;;;;;5009799;28;20064;-81
2021/07/23 02:53:59;;;;;;;7.95;6.43;;;21.40;58.10;;;;;;5009729;28;20026;-81
2021/07/23 02:56:26;;;;;;;8.13;6.53;;;21.30;58.40;;;;;;5010270;28;20109;-80
2021/07/23 02:58:51;;;;;;;7.60;6.30;;;21.30;57.90;;;;;;5010510;28;20044;-80
2021/07/23 03:01:17;;;;;;;8.57;6.40;;;21.30;58.40;;;;;;5011587;28;20411;-81
2021/07/23 03:03:43;;;;;;;7.45;5.95;;;21.20;58.30;;;;;;5009576;28;20061;-80
2021/07/23 03:06:08;;;;;;;8.15;6.47;;;21.20;58.30;;;;;;5010081;28;20037;-81
2021/07/23 03:08:34;;;;;;;9.05;6.10;;;21.20;58.50;;;;;;5009700;28;20517;-81
2021/07/23 03:11:02;;;;;;;9.32;6.30;;;21.20;58.90;;;;;;5010118;28;20053;-82
2021/07/23 03:13:28;;;;;;;9.30;6.45;;;21.20;57.90;;;;;;5010303;28;20022;-81
2021/07/23 03:15:53;;;;;;;8.10;5.88;;;21.20;58.70;;;;;;5012029;28;20545;-81
2021/07/23 03:18:19;;;;;;;8.77;6.65;;;21.10;59.10;;;;;;5009914;28;20034;-82
2021/07/23 03:20:44;;;;;;;8.75;6.45;;;21.10;59.20;;;;;;5007230;28;20491;-83
2021/07/23 03:23:10;;;;;;;7.43;6.22;;;21.10;59.10;;;;;;5008365;28;20076;-83
2021/07/23 03:25:36;;;;;;;8.07;6.05;;;21.10;58.90;;;;;;5009553;28;20403;-83
2021/07/23 03:28:02;;;;;;;8.55;6.25;;;21.10;58.90;;;;;;5011347;28;20064;-83
2021/07/23 03:30:28;;;;;;;7.53;6.38;;;21.00;58.80;;;;;;5009625;28;20116;-83
2021/07/23 03:32:54;;;;;;;9.60;6.60;;;21.00;58.80;;;;;;5009894;28;20080;-83
2021/07/23 03:35:20;;;;;;;7.93;5.90;;;21.00;59.00;;;;;;5008074;28;20050;-83
2021/07/23 03:37:45;;;;;;;8.90;6.00;;;21.00;58.70;;;;;;5009794;28;20033;-83
2021/07/23 03:40:11;;;;;;;10.50;6.13;;;21.00;59.20;;;;;;5025977;28;20024;-83
2021/07/23 03:42:37;;;;;;;7.68;5.85;;;21.00;59.10;;;;;;5009880;28;20038;-83
2021/07/23 03:45:03;;;;;;;9.68;6.53;;;20.90;58.40;;;;;;5008020;28;20029;-83
2021/07/23 03:47:29;;;;;;;7.75;6.45;;;20.90;58.90;;;;;;5008123;28;20037;-83
2021/07/23 03:49:54;;;;;;;6.85;6.07;;;20.80;59.00;;;;;;5007998;28;20033;-84
2021/07/23 03:52:20;;;;;;;7.13;5.75;;;20.90;59.30;;;;;;5010605;28;20507;-83
2021/07/23 03:54:45;;;;;;;9.27;6.55;;;20.80;59.10;;;;;;5009447;28;20030;-83
2021/07/23 03:57:11;;;;;;;9.25;6.20;;;20.80;59.60;;;;;;5002355;28;20561;-83
2021/07/23 03:59:37;;;;;;;9.52;6.47;;;20.80;59.20;;;;;;5005961;28;20026;-83
2021/07/23 04:02:02;;;;;;;7.78;6.30;;;20.80;58.90;;;;;;5009445;28;20037;-83
2021/07/23 04:04:28;;;;;;;8.02;6.38;;;20.80;59.20;;;;;;5012683;28;20395;-83
2021/07/23 04:07:01;;;;;;;8.95;6.00;;;20.70;59.20;;;;;;5014270;28;20417;-83
2021/07/23 04:09:28;;;;;;;8.20;6.25;;;20.70;59.60;;;;;;5011028;28;20022;-83
2021/07/23 04:11:54;;;;;;;8.63;6.20;;;20.70;59.60;;;;;;5011011;28;20088;-84
2021/07/23 04:14:21;;;;;;;8.93;7.00;;;20.70;59.40;;;;;;5010995;28;20487;-83
2021/07/23 04:16:47;;;;;;;7.78;5.95;;;20.70;60.10;;;;;;5010723;28;20053;-84
2021/07/23 04:19:13;;;;;;;10.55;6.53;;;20.70;60.10;;;;;;5012420;28;20402;-83
2021/07/23 04:21:39;;;;;;;7.28;5.95;;;20.70;59.80;;;;;;5012843;28;20033;-83
2021/07/23 04:24:08;;;;;;;7.70;6.43;;;20.70;60.40;;;;;;5012178;28;20072;-83
2021/07/23 04:26:34;;;;;;;9.50;7.03;;;20.70;60.20;;;;;;5005213;28;20120;-82
2021/07/23 04:29:00;;;;;;;8.75;6.70;;;20.60;60.50;;;;;;5008083;28;20109;-81
2021/07/23 04:31:26;;;;;;;9.40;6.00;;;20.60;60.60;;;;;;4995936;28;20039;-81
2021/07/23 04:33:51;;;;;;;9.57;6.22;;;20.70;60.60;;;;;;4993977;28;20911;-81
2021/07/23 04:36:17;;;;;;;10.40;6.38;;;20.60;60.30;;;;;;4996416;28;20077;-82
2021/07/23 04:38:42;;;;;;;7.53;6.35;;;20.60;60.30;;;;;;4998412;28;20026;-81
2021/07/23 04:41:08;;;;;;;9.70;7.00;;;20.60;60.60;;;;;;4996797;28;20026;-83
2021/07/23 04:43:38;;;;;;;10.10;7.15;;;20.60;60.10;;;;;;4993303;28;20034;-82
2021/07/23 04:46:07;;;;;;;7.68;6.55;;;20.60;60.00;;;;;;4997456;28;20376;-83
2021/07/23 04:48:33;;;;;;;9.02;6.50;;;20.70;60.50;;;;;;4996068;28;20022;-82
2021/07/23 04:51:01;;;;;;;9.60;7.15;;;20.60;60.40;;;;;;5004825;28;20072;-83
2021/07/23 04:53:26;;;;;;;7.85;6.40;;;20.60;60.40;;;;;;4999663;28;20034;-83
2021/07/23 04:55:54;;;;;;;8.43;6.82;;;20.70;60.90;;;;;;5010186;28;20073;-82
2021/07/23 04:58:20;;;;;;;8.75;6.82;;;20.80;60.60;;;;;;5001732;28;20044;-82
2021/07/23 05:00:45;;;;;;;9.55;6.88;;;20.80;60.70;;;;;;5005126;28;20104;-82
2021/07/23 05:03:12;;;;;;;9.55;6.97;;;20.80;60.50;;;;;;4997413;28;20042;-81
2021/07/23 05:05:43;;;;;;;7.85;6.32;;;20.80;60.60;;;;;;4995220;28;20025;-82
2021/07/23 05:08:12;;;;;;;7.90;6.57;;;20.90;60.70;;;;;;5002440;28;20399;-81
2021/07/23 05:10:40;;;;;;;9.32;6.95;;;20.90;60.40;;;;;;5010483;28;20032;-81
2021/07/23 05:13:07;;;;;;;9.10;6.85;;;20.90;60.80;;;;;;5012864;28;20025;-82
2021/07/23 05:15:33;;;;;;;9.00;7.10;;;21.00;61.50;;;;;;4999880;28;20027;-81
2021/07/23 05:17:59;;;;;;;7.75;6.78;;;20.90;62.10;;;;;;5003007;28;20460;-81
2021/07/23 05:20:25;;;;;;;8.70;6.90;;;21.00;61.00;;;;;;4997329;28;20033;-83
2021/07/23 05:22:51;;;;;;;9.93;7.18;;;21.00;60.80;;;;;;4995601;28;20018;-84
2021/07/23 05:25:17;;;;;;;9.38;6.65;;;21.10;60.40;;;;;;5002028;28;20042;-84
2021/07/23 05:27:42;;;;;;;9.68;7.32;;;21.20;60.60;;;;;;5007189;28;20089;-85
2021/07/23 05:30:08;;;;;;;9.10;6.80;;;21.10;60.60;;;;;;4995273;28;20125;-85
2021/07/23 05:32:34;;;;;;;10.18;6.65;;;21.20;60.10;;;;;;5003214;28;20064;-85
2021/07/23 05:35:00;;;;;;;9.68;6.75;;;21.20;60.10;;;;;;5003698;28;20029;-84
2021/07/23 05:37:25;;;;;;;9.40;6.80;;;21.30;60.10;;;;;;4995116;28;20029;-84
2021/07/23 05:39:51;;;;;;;8.10;6.03;;;21.30;60.60;;;;;;4998948;28;20630;-83
2021/07/23 05:42:16;;;;;;;11.73;7.22;;;21.30;60.10;;;;;;5003554;28;20108;-82
2021/07/23 05:44:42;;;;;;;8.45;7.15;;;21.40;60.30;;;;;;5010223;28;20018;-84
2021/07/23 05:47:08;;;;;;;7.72;6.57;;;21.40;60.20;;;;;;5004176;28;20034;-85
2021/07/23 05:49:33;;;;;;;8.45;6.65;;;21.40;60.20;;;;;;4994217;28;20418;-83
2021/07/23 05:51:59;;;;;;;8.63;6.80;;;21.50;61.00;;;;;;5006727;28;20034;-83
2021/07/23 05:54:24;;;;;;;9.57;6.90;;;21.50;59.80;;;;;;5008605;28;20034;-80
2021/07/23 05:56:50;;;;;;;9.57;7.05;;;21.50;59.80;;;;;;5009458;28;20041;-83
2021/07/23 05:59:16;;;;;;;12.95;7.22;;;21.60;59.80;;;;;;5010278;28;20026;-81
2021/07/23 06:01:41;;;;;;;8.95;6.75;;;21.70;60.00;;;;;;5008265;28;20026;-79
2021/07/23 06:04:08;;;;;;;9.27;7.18;;;21.70;60.00;;;;;;5010445;28;20022;-81
2021/07/23 06:06:33;;;;;;;8.13;6.50;;;21.80;59.50;;;;;;5007959;28;20044;-69
2021/07/23 06:09:00;;;;;;;8.25;6.45;;;21.90;62.50;;;;;;5008870;28;20092;-69
2021/07/23 06:11:26;;;;;;;10.02;7.00;;;22.20;63.50;;;;;;5008652;28;20038;-70
2021/07/23 06:13:52;;;;;;;8.93;6.47;;;22.50;62.60;;;;;;5010281;28;20108;-71
2021/07/23 06:16:17;;;;;;;9.25;6.30;;;22.60;60.40;;;;;;5011254;28;20106;-71
2021/07/23 06:18:43;;;;;;;8.88;7.00;;;22.60;60.30;;;;;;5011175;28;20037;-70
2021/07/23 06:21:09;;;;;;;7.93;6.57;;;22.70;59.80;;;;;;5008695;28;20021;-71
2021/07/23 06:23:35;;;;;;;8.27;6.38;;;22.80;59.00;;;;;;5008764;28;20052;-71
2021/07/23 06:26:02;;;;;;;9.10;7.15;;;22.90;60.00;;;;;;5007804;28;20029;-71
2021/07/23 06:28:28;;;;;;;10.07;7.32;;;23.10;58.30;;;;;;5010626;28;20517;-77
2021/07/23 06:31:04;;;;;;;9.98;6.97;;;23.00;57.40;;;;;;5001457;28;20054;-78
2021/07/23 06:33:30;;;;;;;10.38;7.18;;;22.80;57.10;;;;;;5008759;28;20030;-78
2021/07/23 06:35:56;;;;;;;11.02;6.60;;;22.70;57.50;;;;;;5009989;28;20506;-75
2021/07/23 06:38:22;;;;;;;9.40;6.57;;;22.70;58.10;;;;;;5010154;28;20033;-79
2021/07/23 06:40:47;;;;;;;7.72;6.15;;;22.70;58.00;;;;;;5022490;28;20438;-79
2021/07/23 06:43:13;;;;;;;10.43;7.00;;;22.80;58.10;;;;;;5010574;28;20034;-77
2021/07/23 06:45:39;;;;;;;9.30;6.50;;;22.90;57.60;;;;;;5007611;28;20029;-78
2021/07/23 06:48:05;;;;;;;7.95;6.38;;;22.90;57.70;;;;;;5009695;28;20069;-78
2021/07/23 06:50:33;;;;;;;9.88;6.88;;;22.90;57.40;;;;;;5009622;28;20034;-78
2021/07/23 06:53:02;;;;;;;9.85;6.93;;;22.80;57.50;;;;;;5009929;28;20030;-78
2021/07/23 06:55:28;;;;;;;8.75;7.32;;;22.80;57.50;;;;;;5010270;28;20025;-77
2021/07/23 06:57:53;;;;;;;8.38;6.47;;;22.90;57.80;;;;;;5007396;28;20036;-79
2021/07/23 07:00:19;;;;;;;8.77;6.53;;;23.00;57.80;;;;;;5003223;28;20034;-83
2021/07/23 07:02:45;;;;;;;8.60;6.90;;;23.10;57.50;;;;;;4990205;28;20513;-82
2021/07/23 07:05:11;;;;;;;10.95;6.95;;;23.10;57.10;;;;;;5005710;28;20490;-77
2021/07/23 07:07:36;;;;;;;6.90;5.85;;;23.10;57.00;;;;;;5004122;28;20053;-77
2021/07/23 07:10:03;;;;;;;9.48;6.40;;;23.10;57.00;;;;;;5011626;28;20018;-78
2021/07/23 07:12:28;;;;;;;9.35;6.55;;;23.10;57.00;;;;;;5007722;28;20034;-77
2021/07/23 07:14:54;;;;;;;8.63;6.55;;;23.10;57.30;;;;;;5009148;28;20037;-76
2021/07/23 07:17:20;;;;;;;9.15;6.47;;;23.10;57.20;;;;;;5009016;28;20037;-75
2021/07/23 07:19:46;;;;;;;8.43;7.03;;;23.10;57.20;;;;;;5010031;28;20041;-76
2021/07/23 07:22:12;;;;;;;10.15;6.68;;;23.10;57.10;;;;;;5010224;28;20221;-77
2021/07/23 07:24:37;;;;;;;10.10;6.45;;;23.10;57.20;;;;;;5009340;28;20143;-79
2021/07/23 07:27:03;;;;;;;10.40;6.50;;;23.10;56.80;;;;;;5007439;28;20499;-77
2021/07/23 07:29:29;;;;;;;8.30;6.55;;;23.10;57.40;;;;;;5008069;28;20513;-76
2021/07/23 07:31:54;;;;;;;8.38;6.30;;;23.10;57.10;;;;;;5008110;28;20141;-76
2021/07/23 07:34:20;;;;;;;9.13;6.50;;;23.10;57.40;;;;;;5009823;28;20032;-76
2021/07/23 07:36:46;;;;;;;10.38;6.68;;;23.20;57.20;;;;;;5008942;28;20061;-77
2021/07/23 07:39:13;;;;;;;9.13;6.85;;;23.20;56.80;;;;;;5017119;28;20513;-77
2021/07/23 07:41:39;;;;;;;9.80;6.28;;;23.30;56.80;;;;;;5021085;28;20104;-78
2021/07/23 07:44:05;;;;;;;9.10;6.10;;;23.40;56.80;;;;;;5012546;28;20874;-78
2021/07/23 07:46:31;;;;;;;7.85;6.80;;;23.50;56.30;;;;;;5012763;28;20032;-78
2021/07/23 07:48:57;;;;;;;8.63;6.68;;;23.60;56.10;;;;;;5015031;28;20025;-79
2021/07/23 07:51:22;;;;;;;9.10;6.57;;;23.60;55.90;;;;;;5010752;28;20148;-77
2021/07/23 07:53:48;;;;;;;9.80;6.90;;;23.70;55.50;;;;;;5011551;28;20112;-80
2021/07/23 07:56:14;;;;;;;8.07;6.13;;;23.80;55.80;;;;;;5011315;28;20394;-76
2021/07/23 07:58:40;;;;;;;7.55;6.10;;;23.90;55.20;;;;;;5012568;28;20025;-76
2021/07/23 08:01:10;;;;;;;7.97;6.00;;;23.90;55.40;;;;;;5014816;28;20502;-76
2021/07/23 08:03:36;;;;;;;9.90;6.00;;;23.90;55.40;;;;;;5011305;28;20040;-76
2021/07/23 08:06:18;;;;;;;7.85;6.32;;;24.00;55.40;;;;;;5011452;28;20022;-76
2021/07/23 08:08:45;;;;;;;6.55;5.85;;;24.00;54.70;;;;;;5011275;28;20034;-76
2021/07/23 08:11:10;;;;;;;7.82;6.03;;;24.10;55.10;;;;;;5010552;28;20026;-76
2021/07/23 08:13:36;;;;;;;7.90;5.60;;;24.10;55.00;;;;;;5012241;28;20026;-78
2021/07/23 08:16:04;;;;;;;8.95;6.30;;;24.20;54.90;;;;;;5013171;28;20022;-79
2021/07/23 08:18:29;;;;;;;8.88;6.05;;;24.30;55.20;;;;;;5011284;28;20033;-79
2021/07/23 08:20:55;;;;;;;8.18;6.32;;;24.40;55.00;;;;;;5012250;28;20034;-78
2021/07/23 08:23:21;;;;;;;7.15;5.75;;;24.50;54.50;;;;;;5010868;28;20026;-78
2021/07/23 08:25:48;;;;;;;8.57;6.28;;;24.50;54.50;;;;;;5010612;28;20053;-78
2021/07/23 08:28:15;;;;;;;10.77;6.10;;;24.60;54.50;;;;;;5013735;28;20041;-78
2021/07/23 08:30:41;;;;;;;9.45;5.85;;;24.70;54.40;;;;;;5012739;28;20083;-78
2021/07/23 08:33:07;;;;;;;9.75;5.82;;;24.80;52.90;;;;;;5011168;28;20113;-77
2021/07/23 08:35:32;;;;;;;7.40;5.80;;;24.90;52.80;;;;;;5010477;28;20105;-78
2021/07/23 08:37:58;;;;;;;7.57;6.18;;;25.10;53.90;;;;;;5010205;28;20121;-77
2021/07/23 08:40:24;;;;;;;7.53;6.03;;;25.20;52.50;;;;;;5026035;28;20563;-78
2021/07/23 08:42:49;;;;;;;8.57;6.80;;;25.30;51.70;;;;;;5010973;28;20429;-78
2021/07/23 08:45:15;;;;;;;8.07;6.53;;;25.40;51.80;;;;;;5003699;28;20030;-77
2021/07/23 08:47:41;;;;;;;7.97;6.25;;;25.40;51.30;;;;;;5010736;28;20038;-77
2021/07/23 08:50:07;;;;;;;8.07;6.47;;;25.40;51.20;;;;;;5009722;28;20029;-77
2021/07/23 08:52:43;;;;;;;8.73;6.35;;;25.50;51.10;;;;;;5012271;28;20510;-77
2021/07/23 08:55:10;;;;;;;8.68;6.45;;;25.50;51.50;;;;;;5013019;28;20026;-77
2021/07/23 08:57:36;;;;;;;7.25;6.38;;;25.60;51.50;;;;;;5012142;28;20033;-76
2021/07/23 09:00:13;;;;;;;7.50;6.18;;;25.60;51.40;;;;;;5010769;28;20030;-77
2021/07/23 09:02:56;;;;;;;9.95;5.97;;;25.50;51.00;;;;;;5010459;28;20080;-75
2021/07/23 09:05:36;;;;;;;7.65;5.85;;;25.40;51.40;;;;;;5011601;28;20030;-79
2021/07/23 09:08:10;;;;;;;8.07;5.88;;;25.30;51.60;;;;;;5010375;28;20448;-79
2021/07/23 09:10:35;;;;;;;10.43;6.88;;;25.20;51.80;;;;;;5010015;28;20034;-79
2021/07/23 09:13:02;;;;;;;7.95;6.47;;;25.00;52.10;;;;;;5012911;28;20030;-79
2021/07/23 09:15:29;;;;;;;9.25;6.30;;;25.00;52.40;;;;;;5010090;28;20041;-78
2021/07/23 09:17:55;;;;;;;7.65;6.43;;;24.90;52.90;;;;;;5010192;28;20041;-78
2021/07/23 09:20:29;;;;;;;9.13;5.78;;;24.90;52.90;;;;;;5011408;28;20030;-77
2021/07/23 09:23:00;;;;;;;8.45;6.10;;;25.00;53.20;;;;;;5009926;28;20022;-77
2021/07/23 09:25:43;;;;;;;7.55;6.00;;;25.20;52.90;;;;;;5012070;28;20018;-78
2021/07/23 09:28:23;;;;;;;11.45;6.50;;;25.40;52.90;;;;;;5011873;28;20096;-79
2021/07/23 09:30:50;;;;;;;8.77;6.47;;;25.50;53.00;;;;;;5024611;28;20057;-77
2021/07/23 09:33:24;;;;;;;8.93;5.95;;;25.70;51.60;;;;;;5006955;28;20073;-79
2021/07/23 09:35:51;;;;;;;8.70;6.70;;;25.90;52.30;;;;;;5009402;28;20029;-79
2021/07/23 09:38:18;;;;;;;7.50;5.85;;;26.10;51.90;;;;;;5010685;28;20567;-79
2021/07/23 09:40:44;;;;;;;8.27;5.97;;;26.30;50.80;;;;;;5024493;28;20422;-77
2021/07/23 09:43:11;;;;;;;7.82;5.95;;;26.20;49.90;;;;;;5012141;28;20020;-78
2021/07/23 09:45:36;;;;;;;7.90;5.97;;;26.20;50.20;;;;;;5010925;28;20032;-77
2021/07/23 09:48:13;;;;;;;11.73;6.47;;;26.30;50.00;;;;;;5011102;28;20033;-78
2021/07/23 09:50:39;;;;;;;8.23;6.78;;;26.30;50.10;;;;;;5011173;28;20109;-77
2021/07/23 09:53:10;;;;;;;8.90;6.03;;;26.50;50.10;;;;;;5008527;28;20037;-77
2021/07/23 09:55:36;;;;;;;9.75;6.05;;;26.50;48.90;;;;;;5010826;28;20042;-77
2021/07/23 09:58:06;;;;;;;7.57;6.30;;;26.40;48.00;;;;;;5010485;28;20450;-77
2021/07/23 10:00:42;;;;;;;8.15;6.47;;;26.30;48.80;;;;;;5009418;28;20107;-77
2021/07/23 10:03:16;;;;;;;9.30;6.45;;;26.20;48.60;;;;;;5009515;28;20026;-77
2021/07/23 10:05:52;;;;;;;8.82;7.25;;;26.10;48.90;;;;;;5008099;28;20521;-77
2021/07/23 10:08:25;;;;;;;9.60;6.97;;;26.20;50.00;;;;;;5008852;28;20038;-77
2021/07/23 10:10:53;;;;;;;7.97;6.43;;;26.40;49.30;;;;;;5008721;28;20105;-77
2021/07/23 10:13:21;;;;;;;7.75;6.22;;;26.40;48.50;;;;;;5012141;28;20101;-78
2021/07/23 10:15:48;;;;;;;8.18;6.70;;;26.50;49.00;;;;;;5011560;28;20026;-77
2021/07/23 10:18:15;;;;;;;22.92;7.07;;;26.60;48.70;;;;;;5009003;28;20032;-78
2021/07/23 10:20:41;;;;;;;9.65;6.53;;;26.70;48.30;;;;;;5010035;28;20053;-76
2021/07/23 10:23:06;;;;;;;7.53;5.75;;;27.00;49.00;;;;;;5008965;28;20048;-75
2021/07/23 10:25:34;;;;;;;8.38;6.38;;;27.20;48.70;;;;;;5009467;28;20034;-79
2021/07/23 10:28:03;;;;;;;8.05;6.30;;;27.20;48.10;;;;;;5009451;28;20044;-75
2021/07/23 10:30:34;;;;;;;10.63;6.72;;;27.30;48.20;;;;;;5008394;28;20053;-76
2021/07/23 10:33:01;;;;;;;7.35;6.00;;;27.40;47.20;;;;;;5009199;28;20478;-76
2021/07/23 10:35:26;;;;;;;7.50;6.03;;;27.50;46.90;;;;;;5008882;28;20028;-79
2021/07/23 10:37:53;;;;;;;9.82;6.47;;;27.60;46.60;;;;;;5008725;28;20022;-75
2021/07/23 10:40:34;;;;;;;7.25;6.05;;;27.70;45.60;;;;;;5024816;28;20052;-77
2021/07/23 10:43:00;;;;;;;7.25;5.93;;;27.80;46.10;;;;;;4999267;28;20108;-75
2021/07/23 10:45:42;;;;;;;8.45;6.45;;;27.70;45.70;;;;;;4999431;28;20120;-78
2021/07/23 10:48:08;;;;;;;7.40;6.27;;;27.70;46.00;;;;;;5000340;28;20045;-83
2021/07/23 10:50:39;;;;;;;10.10;6.30;;;27.60;45.90;;;;;;5001093;28;20116;-84
2021/07/23 10:53:27;;;;;;;7.03;6.10;;;27.70;46.00;;;;;;5003115;28;20495;-78
2021/07/23 10:55:53;;;;;;;6.20;5.53;;;27.70;45.40;;;;;;4994291;28;20041;-79
2021/07/23 10:58:18;;;;;;;8.55;6.15;;;27.70;44.60;;;;;;5010883;28;20037;-79
2021/07/23 11:00:52;;;;;;;8.68;6.22;;;27.60;44.90;;;;;;5010426;28;20026;-79
2021/07/23 11:03:36;;;;;;;8.38;5.57;;;27.50;45.10;;;;;;5007248;28;20138;-80
2021/07/23 11:06:23;;;;;;;8.95;6.05;;;27.40;45.60;;;;;;5006227;28;20165;-77
2021/07/23 11:08:56;;;;;;;8.13;5.80;;;27.20;45.30;;;;;;5003031;28;20479;-77
2021/07/23 11:11:27;;;;;;;8.48;5.63;;;27.00;45.50;;;;;;5007195;28;20479;-77
2021/07/23 11:13:53;;;;;;;8.25;5.95;;;26.80;46.10;;;;;;5012782;28;20108;-76
2021/07/23 11:16:26;;;;;;;7.75;5.95;;;26.60;46.30;;;;;;5017501;28;20502;-78
2021/07/23 11:18:52;;;;;;;;;;;26.40;46.60;;;;;;5017745;28;20494;-76
2021/07/23 11:21:19;;;;;;;8.00;5.80;;;26.30;46.90;;;;;;5014608;28;19914;-75
2021/07/23 11:23:46;;;;;;;8.45;5.75;;;26.20;47.30;;;;;;5010781;28;20030;-77
2021/07/23 11:26:22;;;;;;;8.90;6.78;;;26.20;47.50;;;;;;5009906;28;20026;-77
2021/07/23 11:28:54;;;;;;;13.68;6.45;;;26.10;47.70;;;;;;5012787;28;20042;-79
2021/07/23 11:31:33;;;;;;;8.57;6.53;;;26.10;48.00;;;;;;4998497;28;20129;-79
2021/07/23 11:34:00;;;;;;;7.00;6.05;;;26.10;48.20;;;;;;4999520;28;20026;-80
2021/07/23 11:36:36;;;;;;;9.07;6.28;;;26.20;49.60;;;;;;5005221;28;20026;-78
2021/07/23 11:39:07;;;;;;;7.45;5.40;;;26.50;48.60;;;;;;5014035;28;20037;-79
2021/07/23 11:41:34;;;;;;;9.10;6.20;;;26.80;48.60;;;;;;5010753;28;20251;-78
2021/07/23 11:44:08;;;;;;;9.77;6.63;;;27.10;47.70;;;;;;4999469;28;20018;-79
2021/07/23 11:46:35;;;;;;;9.60;6.43;;;27.50;47.10;;;;;;5011682;28;20030;-81
2021/07/23 11:49:01;;;;;;;7.35;6.15;;;27.90;45.90;;;;;;4998662;28;20057;-77
2021/07/23 11:51:37;;;;;;;8.30;6.20;;;28.10;44.70;;;;;;5002072;28;20038;-77
2021/07/23 11:54:03;;;;;;;7.90;5.72;;;28.30;44.10;;;;;;5005982;28;20022;-78
2021/07/23 11:56:32;;;;;;;10.57;6.65;;;28.20;44.40;;;;;;5014560;28;20505;-78
2021/07/23 11:58:59;;;;;;;8.02;6.32;;;28.30;44.70;;;;;;5014647;28;20022;-79
2021/07/23 12:01:26;;;;;;;8.27;6.07;;;28.40;43.30;;;;;;4997794;28;20039;-78
2021/07/23 12:03:55;;;;;;;6.22;5.43;;;28.40;43.60;;;;;;5015389;28;20022;-80
2021/07/23 12:06:29;;;;;;;8.02;6.40;;;28.40;44.30;;;;;;5015933;28;20030;-80
2021/07/23 12:08:56;;;;;;;8.00;6.15;;;28.60;45.10;;;;;;5016044;28;20030;-79
2021/07/23 12:11:23;;;;;;;7.28;6.13;;;28.70;43.50;;;;;;5013889;28;20494;-79
2021/07/23 12:13:52;;;;;;;8.32;6.38;;;28.80;42.90;;;;;;5011115;28;20751;-80
2021/07/23 12:16:19;;;;;;;8.90;5.95;;;29.00;44.30;;;;;;4999412;28;20105;-80
2021/07/23 12:18:58;;;;;;;11.60;7.05;;;29.00;41.80;;;;;;5003448;28;20018;-79
2021/07/23 12:21:25;;;;;;;7.05;5.97;;;29.00;42.00;;;;;;5006748;28;20046;-80
2021/07/23 12:23:57;;;;;;;8.98;6.43;;;29.10;42.00;;;;;;5007134;28;20025;-79
2021/07/23 12:26:31;;;;;;;9.73;6.30;;;29.30;41.80;;;;;;5006993;28;20113;-80
2021/07/23 12:28:58;;;;;;;9.60;6.80;;;29.40;41.60;;;;;;4998413;28;20057;-80
2021/07/23 12:31:25;;;;;;;8.95;6.22;;;29.30;41.20;;;;;;5001839;28;20054;-79
2021/07/23 12:34:01;;;;;;;9.02;6.70;;;29.40;41.90;;;;;;4999682;28;20022;-79
2021/07/23 12:36:27;;;;;;;7.50;6.03;;;29.40;41.60;;;;;;5000110;28;20030;-79
2021/07/23 12:39:00;;;;;;;7.57;6.63;;;29.40;41.10;;;;;;5001991;28;20033;-79
2021/07/23 12:41:26;;;;;;;7.30;5.85;;;29.50;41.60;;;;;;5009367;28;20081;-79
2021/07/23 12:44:08;;;;;;;9.35;6.65;;;29.70;40.50;;;;;;4997480;28;20023;-79
2021/07/23 12:46:35;;;;;;;7.55;6.38;;;29.70;40.80;;;;;;5010792;28;20033;-78